sensor_id;sensor_type;location;lat;lon;timestamp;P1;durP1;ratioP1;P2;durP2;ratioP2
11835;SDS011;5977;51.972;7.640;2024-02-23T00:02:41;146.00;;;47.97;;
11835;SDS011;5977;51.972;7.640;2024-02-23T00:09:34;145.97;;;48.07;;
11835;SDS011;5977;51.972;7.640;2024-02-23T00:20:50;145.97;;;48.00;;
11835;SDS011;5977;51.972;7.640;2024-02-23T00:32:07;145.93;;;48.10;;
11835;SDS011;5977;51.972;7.640;2024-02-23T00:47:44;144.83;;;47.77;;
11835;SDS011;5977;51.972;7.640;2024-02-23T01:02:55;144.57;;;47.40;;
11835;SDS011;5977;51.972;7.640;2024-02-23T01:14:14;144.17;;;47.30;;
11835;SDS011;5977;51.972;7.640;2024-02-23T01:21:01;144.80;;;47.50;;
11835;SDS011;5977;51.972;7.640;2024-02-23T01:36:50;143.73;;;47.27;;
11835;SDS011;5977;51.972;7.640;2024-02-23T01:52:46;143.17;;;46.93;;
11835;SDS011;5977;51.972;7.640;2024-02-23T02:08:33;143.90;;;47.30;;
11835;SDS011;5977;51.972;7.640;2024-02-23T02:15:27;144.17;;;47.33;;
11835;SDS011;5977;51.972;7.640;2024-02-23T02:22:13;143.67;;;47.23;;
11835;SDS011;5977;51.972;7.640;2024-02-23T02:46:11;142.87;;;46.93;;
11835;SDS011;5977;51.972;7.640;2024-02-23T03:02:01;142.50;;;46.80;;
11835;SDS011;5977;51.972;7.640;2024-02-23T03:17:34;143.40;;;47.30;;
11835;SDS011;5977;51.972;7.640;2024-02-23T03:24:27;143.10;;;47.13;;
11835;SDS011;5977;51.972;7.640;2024-02-23T03:31:13;143.13;;;47.10;;
11835;SDS011;5977;51.972;7.640;2024-02-23T03:38:04;143.07;;;47.20;;
11835;SDS011;5977;51.972;7.640;2024-02-23T03:49:29;142.37;;;46.80;;
11835;SDS011;5977;51.972;7.640;2024-02-23T04:26:59;142.07;;;46.60;;
11835;SDS011;5977;51.972;7.640;2024-02-23T04:38:11;141.93;;;46.67;;
11835;SDS011;5977;51.972;7.640;2024-02-23T04:53:47;142.13;;;46.67;;
11835;SDS011;5977;51.972;7.640;2024-02-23T05:05:05;142.17;;;46.70;;
11835;SDS011;5977;51.972;7.640;2024-02-23T05:12:33;141.33;;;46.43;;
11835;SDS011;5977;51.972;7.640;2024-02-23T05:31:16;142.13;;;46.73;;
11835;SDS011;5977;51.972;7.640;2024-02-23T06:16:29;141.83;;;46.70;;
11835;SDS011;5977;51.972;7.640;2024-02-23T06:53:44;140.63;;;46.20;;
11835;SDS011;5977;51.972;7.640;2024-02-23T07:39:04;137.90;;;45.10;;
11835;SDS011;5977;51.972;7.640;2024-02-23T07:49:37;138.07;;;45.27;;
11835;SDS011;5977;51.972;7.640;2024-02-23T07:52:07;138.30;;;45.37;;
11835;SDS011;5977;51.972;7.640;2024-02-23T07:54:36;138.27;;;45.30;;
11835;SDS011;5977;51.972;7.640;2024-02-23T07:57:04;138.23;;;45.30;;
11835;SDS011;5977;51.972;7.640;2024-02-23T07:59:32;138.30;;;45.27;;
11835;SDS011;5977;51.972;7.640;2024-02-23T08:02:00;139.40;;;45.83;;
11835;SDS011;5977;51.972;7.640;2024-02-23T08:04:28;138.60;;;45.47;;
11835;SDS011;5977;51.972;7.640;2024-02-23T08:06:56;139.03;;;45.73;;
11835;SDS011;5977;51.972;7.640;2024-02-23T08:09:24;140.03;;;46.13;;
11835;SDS011;5977;51.972;7.640;2024-02-23T08:11:53;140.67;;;46.60;;
11835;SDS011;5977;51.972;7.640;2024-02-23T08:14:21;141.03;;;46.43;;
11835;SDS011;5977;51.972;7.640;2024-02-23T08:16:49;141.63;;;46.70;;
11835;SDS011;5977;51.972;7.640;2024-02-23T08:19:17;141.37;;;46.57;;
11835;SDS011;5977;51.972;7.640;2024-02-23T08:21:45;141.27;;;46.53;;
11835;SDS011;5977;51.972;7.640;2024-02-23T08:24:13;141.93;;;46.90;;
11835;SDS011;5977;51.972;7.640;2024-02-23T08:26:41;141.73;;;46.60;;
11835;SDS011;5977;51.972;7.640;2024-02-23T08:29:10;140.93;;;46.30;;
11835;SDS011;5977;51.972;7.640;2024-02-23T08:31:39;141.20;;;46.50;;
11835;SDS011;5977;51.972;7.640;2024-02-23T08:34:08;140.93;;;46.30;;
11835;SDS011;5977;51.972;7.640;2024-02-23T08:36:37;141.30;;;46.53;;
11835;SDS011;5977;51.972;7.640;2024-02-23T08:39:04;141.07;;;46.40;;
11835;SDS011;5977;51.972;7.640;2024-02-23T08:41:33;140.80;;;46.30;;
11835;SDS011;5977;51.972;7.640;2024-02-23T08:44:01;140.63;;;46.33;;
11835;SDS011;5977;51.972;7.640;2024-02-23T08:46:30;140.20;;;46.13;;
11835;SDS011;5977;51.972;7.640;2024-02-23T08:48:58;140.23;;;46.03;;
11835;SDS011;5977;51.972;7.640;2024-02-23T08:51:26;140.60;;;46.23;;
11835;SDS011;5977;51.972;7.640;2024-02-23T08:53:54;140.00;;;46.10;;
11835;SDS011;5977;51.972;7.640;2024-02-23T08:56:26;140.73;;;46.37;;
11835;SDS011;5977;51.972;7.640;2024-02-23T08:58:54;140.97;;;46.43;;
11835;SDS011;5977;51.972;7.640;2024-02-23T09:01:22;140.50;;;46.27;;
11835;SDS011;5977;51.972;7.640;2024-02-23T09:03:51;140.03;;;46.10;;
11835;SDS011;5977;51.972;7.640;2024-02-23T09:06:19;140.10;;;46.10;;
11835;SDS011;5977;51.972;7.640;2024-02-23T09:08:47;140.30;;;46.20;;
11835;SDS011;5977;51.972;7.640;2024-02-23T09:11:15;141.17;;;46.57;;
11835;SDS011;5977;51.972;7.640;2024-02-23T09:13:43;140.43;;;46.27;;
11835;SDS011;5977;51.972;7.640;2024-02-23T09:16:11;140.67;;;46.30;;
11835;SDS011;5977;51.972;7.640;2024-02-23T09:18:40;140.60;;;46.30;;
11835;SDS011;5977;51.972;7.640;2024-02-23T09:21:10;140.30;;;46.33;;
11835;SDS011;5977;51.972;7.640;2024-02-23T09:23:38;139.87;;;46.03;;
11835;SDS011;5977;51.972;7.640;2024-02-23T09:26:08;140.63;;;46.40;;
11835;SDS011;5977;51.972;7.640;2024-02-23T09:28:37;140.63;;;46.30;;
11835;SDS011;5977;51.972;7.640;2024-02-23T09:31:07;140.57;;;46.27;;
11835;SDS011;5977;51.972;7.640;2024-02-23T09:33:35;140.57;;;46.30;;
11835;SDS011;5977;51.972;7.640;2024-02-23T09:36:03;140.70;;;46.30;;
11835;SDS011;5977;51.972;7.640;2024-02-23T09:38:33;140.07;;;46.13;;
11835;SDS011;5977;51.972;7.640;2024-02-23T09:41:01;140.53;;;46.37;;
11835;SDS011;5977;51.972;7.640;2024-02-23T09:43:29;140.63;;;46.33;;
11835;SDS011;5977;51.972;7.640;2024-02-23T09:45:58;140.17;;;46.20;;
11835;SDS011;5977;51.972;7.640;2024-02-23T09:48:27;140.23;;;46.17;;
11835;SDS011;5977;51.972;7.640;2024-02-23T09:50:56;140.30;;;46.30;;
11835;SDS011;5977;51.972;7.640;2024-02-23T09:53:26;139.37;;;45.90;;
11835;SDS011;5977;51.972;7.640;2024-02-23T09:55:55;138.97;;;45.73;;
11835;SDS011;5977;51.972;7.640;2024-02-23T09:58:26;139.93;;;46.03;;
11835;SDS011;5977;51.972;7.640;2024-02-23T10:00:56;139.10;;;45.73;;
11835;SDS011;5977;51.972;7.640;2024-02-23T10:03:27;139.37;;;45.77;;
11835;SDS011;5977;51.972;7.640;2024-02-23T10:05:57;140.10;;;46.07;;
11835;SDS011;5977;51.972;7.640;2024-02-23T10:08:26;139.67;;;45.87;;
11835;SDS011;5977;51.972;7.640;2024-02-23T10:10:56;139.40;;;45.87;;
11835;SDS011;5977;51.972;7.640;2024-02-23T10:13:24;140.00;;;46.17;;
11835;SDS011;5977;51.972;7.640;2024-02-23T10:15:52;139.30;;;45.77;;
11835;SDS011;5977;51.972;7.640;2024-02-23T10:18:39;138.67;;;45.70;;
11835;SDS011;5977;51.972;7.640;2024-02-23T10:21:08;138.77;;;45.67;;
11835;SDS011;5977;51.972;7.640;2024-02-23T10:23:36;139.33;;;45.97;;
11835;SDS011;5977;51.972;7.640;2024-02-23T10:26:06;138.97;;;45.60;;
11835;SDS011;5977;51.972;7.640;2024-02-23T10:28:34;139.37;;;45.87;;
11835;SDS011;5977;51.972;7.640;2024-02-23T10:31:04;139.17;;;45.73;;
11835;SDS011;5977;51.972;7.640;2024-02-23T10:33:37;139.10;;;45.77;;
11835;SDS011;5977;51.972;7.640;2024-02-23T10:36:06;139.37;;;45.97;;
11835;SDS011;5977;51.972;7.640;2024-02-23T10:38:35;139.43;;;45.93;;
11835;SDS011;5977;51.972;7.640;2024-02-23T10:41:07;139.57;;;45.87;;
11835;SDS011;5977;51.972;7.640;2024-02-23T10:43:41;139.27;;;45.90;;
11835;SDS011;5977;51.972;7.640;2024-02-23T10:46:11;139.47;;;46.00;;
11835;SDS011;5977;51.972;7.640;2024-02-23T10:48:40;139.20;;;45.80;;
11835;SDS011;5977;51.972;7.640;2024-02-23T10:51:08;139.37;;;45.90;;
11835;SDS011;5977;51.972;7.640;2024-02-23T10:53:43;138.97;;;45.70;;
11835;SDS011;5977;51.972;7.640;2024-02-23T10:56:14;139.17;;;45.77;;
11835;SDS011;5977;51.972;7.640;2024-02-23T10:58:42;138.60;;;45.50;;
11835;SDS011;5977;51.972;7.640;2024-02-23T11:01:10;138.83;;;45.60;;
11835;SDS011;5977;51.972;7.640;2024-02-23T11:03:40;139.03;;;45.80;;
11835;SDS011;5977;51.972;7.640;2024-02-23T11:06:14;139.27;;;45.77;;
11835;SDS011;5977;51.972;7.640;2024-02-23T11:08:47;139.07;;;45.80;;
11835;SDS011;5977;51.972;7.640;2024-02-23T11:11:18;139.10;;;45.90;;
11835;SDS011;5977;51.972;7.640;2024-02-23T11:13:46;139.43;;;45.97;;
11835;SDS011;5977;51.972;7.640;2024-02-23T11:16:21;139.07;;;45.73;;
11835;SDS011;5977;51.972;7.640;2024-02-23T11:18:50;139.77;;;46.17;;
11835;SDS011;5977;51.972;7.640;2024-02-23T11:21:34;138.83;;;45.70;;
11835;SDS011;5977;51.972;7.640;2024-02-23T11:24:03;138.60;;;45.67;;
11835;SDS011;5977;51.972;7.640;2024-02-23T11:26:38;139.63;;;46.07;;
11835;SDS011;5977;51.972;7.640;2024-02-23T11:29:11;138.57;;;45.67;;
11835;SDS011;5977;51.972;7.640;2024-02-23T11:31:44;138.93;;;45.90;;
11835;SDS011;5977;51.972;7.640;2024-02-23T11:34:13;138.47;;;45.60;;
11835;SDS011;5977;51.972;7.640;2024-02-23T11:36:50;140.00;;;46.20;;
11835;SDS011;5977;51.972;7.640;2024-02-23T11:39:19;139.07;;;45.87;;
11835;SDS011;5977;51.972;7.640;2024-02-23T11:41:49;139.07;;;45.83;;
11835;SDS011;5977;51.972;7.640;2024-02-23T11:44:17;138.70;;;45.70;;
11835;SDS011;5977;51.972;7.640;2024-02-23T11:46:46;138.67;;;45.70;;
11835;SDS011;5977;51.972;7.640;2024-02-23T11:49:14;138.30;;;45.53;;
11835;SDS011;5977;51.972;7.640;2024-02-23T11:51:42;139.20;;;46.10;;
11835;SDS011;5977;51.972;7.640;2024-02-23T11:54:11;139.17;;;45.90;;
11835;SDS011;5977;51.972;7.640;2024-02-23T11:56:40;138.97;;;45.90;;
11835;SDS011;5977;51.972;7.640;2024-02-23T11:59:09;138.77;;;45.77;;
11835;SDS011;5977;51.972;7.640;2024-02-23T12:01:37;138.97;;;45.73;;
11835;SDS011;5977;51.972;7.640;2024-02-23T12:04:06;139.27;;;45.97;;
11835;SDS011;5977;51.972;7.640;2024-02-23T12:06:34;139.40;;;45.93;;
11835;SDS011;5977;51.972;7.640;2024-02-23T12:09:02;139.07;;;45.83;;
11835;SDS011;5977;51.972;7.640;2024-02-23T12:11:31;139.17;;;45.90;;
11835;SDS011;5977;51.972;7.640;2024-02-23T12:13:59;139.97;;;46.20;;
11835;SDS011;5977;51.972;7.640;2024-02-23T12:16:30;139.17;;;45.93;;
11835;SDS011;5977;51.972;7.640;2024-02-23T12:19:00;139.97;;;46.10;;
11835;SDS011;5977;51.972;7.640;2024-02-23T12:21:29;139.70;;;46.07;;
11835;SDS011;5977;51.972;7.640;2024-02-23T12:23:57;139.20;;;45.90;;
11835;SDS011;5977;51.972;7.640;2024-02-23T12:26:25;138.83;;;45.67;;
11835;SDS011;5977;51.972;7.640;2024-02-23T12:28:52;139.10;;;46.00;;
11835;SDS011;5977;51.972;7.640;2024-02-23T12:31:30;139.43;;;46.00;;
11835;SDS011;5977;51.972;7.640;2024-02-23T12:33:58;139.33;;;45.97;;
11835;SDS011;5977;51.972;7.640;2024-02-23T12:36:28;139.70;;;46.13;;
11835;SDS011;5977;51.972;7.640;2024-02-23T12:38:57;139.20;;;46.00;;
11835;SDS011;5977;51.972;7.640;2024-02-23T12:41:24;139.70;;;46.10;;
11835;SDS011;5977;51.972;7.640;2024-02-23T12:43:52;139.37;;;46.10;;
11835;SDS011;5977;51.972;7.640;2024-02-23T12:46:20;139.13;;;45.90;;
11835;SDS011;5977;51.972;7.640;2024-02-23T12:48:51;139.90;;;46.13;;
11835;SDS011;5977;51.972;7.640;2024-02-23T12:51:19;139.43;;;46.10;;
11835;SDS011;5977;51.972;7.640;2024-02-23T12:53:52;139.20;;;45.97;;
11835;SDS011;5977;51.972;7.640;2024-02-23T12:56:20;139.80;;;46.20;;
11835;SDS011;5977;51.972;7.640;2024-02-23T12:58:48;139.23;;;45.97;;
11835;SDS011;5977;51.972;7.640;2024-02-23T13:01:16;139.03;;;45.83;;
11835;SDS011;5977;51.972;7.640;2024-02-23T13:03:44;139.67;;;46.13;;
11835;SDS011;5977;51.972;7.640;2024-02-23T13:06:14;138.93;;;45.77;;
11835;SDS011;5977;51.972;7.640;2024-02-23T13:08:42;139.67;;;46.00;;
11835;SDS011;5977;51.972;7.640;2024-02-23T13:11:09;139.10;;;45.87;;
11835;SDS011;5977;51.972;7.640;2024-02-23T13:13:38;140.10;;;46.23;;
11835;SDS011;5977;51.972;7.640;2024-02-23T13:16:09;139.20;;;45.87;;
11835;SDS011;5977;51.972;7.640;2024-02-23T13:18:38;139.13;;;45.87;;
11835;SDS011;5977;51.972;7.640;2024-02-23T13:21:06;139.60;;;46.00;;
11835;SDS011;5977;51.972;7.640;2024-02-23T13:23:36;139.20;;;45.97;;
11835;SDS011;5977;51.972;7.640;2024-02-23T13:26:04;139.20;;;45.83;;
11835;SDS011;5977;51.972;7.640;2024-02-23T13:28:34;138.47;;;45.63;;
11835;SDS011;5977;51.972;7.640;2024-02-23T13:31:02;139.67;;;46.07;;
11835;SDS011;5977;51.972;7.640;2024-02-23T13:33:30;139.23;;;45.97;;
11835;SDS011;5977;51.972;7.640;2024-02-23T13:35:58;139.17;;;45.90;;
11835;SDS011;5977;51.972;7.640;2024-02-23T13:38:26;139.03;;;45.70;;
11835;SDS011;5977;51.972;7.640;2024-02-23T13:40:55;139.00;;;45.80;;
11835;SDS011;5977;51.972;7.640;2024-02-23T13:43:23;138.67;;;45.70;;
11835;SDS011;5977;51.972;7.640;2024-02-23T13:45:52;138.37;;;45.53;;
11835;SDS011;5977;51.972;7.640;2024-02-23T13:48:20;139.20;;;45.90;;
11835;SDS011;5977;51.972;7.640;2024-02-23T13:50:49;138.83;;;45.77;;
11835;SDS011;5977;51.972;7.640;2024-02-23T13:53:17;138.87;;;45.73;;
11835;SDS011;5977;51.972;7.640;2024-02-23T13:55:45;139.03;;;46.00;;
11835;SDS011;5977;51.972;7.640;2024-02-23T13:58:14;138.23;;;45.57;;
11835;SDS011;5977;51.972;7.640;2024-02-23T14:00:43;139.57;;;46.13;;
11835;SDS011;5977;51.972;7.640;2024-02-23T14:03:11;138.63;;;45.73;;
11835;SDS011;5977;51.972;7.640;2024-02-23T14:05:44;139.03;;;45.93;;
11835;SDS011;5977;51.972;7.640;2024-02-23T14:08:13;138.93;;;45.80;;
11835;SDS011;5977;51.972;7.640;2024-02-23T14:10:41;139.63;;;46.03;;
11835;SDS011;5977;51.972;7.640;2024-02-23T14:13:10;139.30;;;46.00;;
11835;SDS011;5977;51.972;7.640;2024-02-23T14:15:40;138.93;;;45.90;;
11835;SDS011;5977;51.972;7.640;2024-02-23T14:18:08;139.30;;;46.03;;
11835;SDS011;5977;51.972;7.640;2024-02-23T14:20:36;139.33;;;46.00;;
11835;SDS011;5977;51.972;7.640;2024-02-23T14:23:04;138.87;;;45.83;;
11835;SDS011;5977;51.972;7.640;2024-02-23T14:25:32;138.97;;;45.90;;
11835;SDS011;5977;51.972;7.640;2024-02-23T14:28:00;138.33;;;45.60;;
11835;SDS011;5977;51.972;7.640;2024-02-23T14:30:28;139.40;;;46.07;;
11835;SDS011;5977;51.972;7.640;2024-02-23T14:32:57;138.70;;;45.73;;
11835;SDS011;5977;51.972;7.640;2024-02-23T14:35:25;138.40;;;45.53;;
11835;SDS011;5977;51.972;7.640;2024-02-23T14:37:53;138.83;;;45.70;;
11835;SDS011;5977;51.972;7.640;2024-02-23T14:40:21;138.83;;;45.87;;
11835;SDS011;5977;51.972;7.640;2024-02-23T14:42:49;139.10;;;46.00;;
11835;SDS011;5977;51.972;7.640;2024-02-23T14:45:17;138.30;;;45.60;;
11835;SDS011;5977;51.972;7.640;2024-02-23T14:47:44;138.73;;;45.80;;
11835;SDS011;5977;51.972;7.640;2024-02-23T14:50:14;139.47;;;46.03;;
11835;SDS011;5977;51.972;7.640;2024-02-23T14:52:42;139.63;;;46.13;;
11835;SDS011;5977;51.972;7.640;2024-02-23T14:55:11;140.57;;;46.50;;
11835;SDS011;5977;51.972;7.640;2024-02-23T14:57:39;142.00;;;47.40;;
11835;SDS011;5977;51.972;7.640;2024-02-23T15:00:08;142.53;;;47.13;;
11835;SDS011;5977;51.972;7.640;2024-02-23T15:02:36;143.40;;;47.53;;
11835;SDS011;5977;51.972;7.640;2024-02-23T15:05:06;143.17;;;47.37;;
11835;SDS011;5977;51.972;7.640;2024-02-23T15:07:36;142.70;;;47.10;;
11835;SDS011;5977;51.972;7.640;2024-02-23T15:10:04;143.27;;;47.43;;
11835;SDS011;5977;51.972;7.640;2024-02-23T15:12:34;142.97;;;47.20;;
11835;SDS011;5977;51.972;7.640;2024-02-23T15:15:03;144.17;;;47.97;;
11835;SDS011;5977;51.972;7.640;2024-02-23T15:17:33;143.63;;;47.50;;
11835;SDS011;5977;51.972;7.640;2024-02-23T15:20:01;143.83;;;47.77;;
11835;SDS011;5977;51.972;7.640;2024-02-23T15:22:30;144.00;;;47.80;;
11835;SDS011;5977;51.972;7.640;2024-02-23T15:25:01;144.10;;;47.83;;
11835;SDS011;5977;51.972;7.640;2024-02-23T15:27:30;144.37;;;48.07;;
11835;SDS011;5977;51.972;7.640;2024-02-23T15:29:58;144.53;;;47.87;;
11835;SDS011;5977;51.972;7.640;2024-02-23T15:32:26;144.53;;;47.70;;
11835;SDS011;5977;51.972;7.640;2024-02-23T15:34:54;144.27;;;48.00;;
11835;SDS011;5977;51.972;7.640;2024-02-23T15:37:22;144.53;;;47.90;;
11835;SDS011;5977;51.972;7.640;2024-02-23T15:39:50;145.53;;;48.27;;
11835;SDS011;5977;51.972;7.640;2024-02-23T15:42:19;145.80;;;48.50;;
11835;SDS011;5977;51.972;7.640;2024-02-23T15:44:47;145.30;;;48.17;;
11835;SDS011;5977;51.972;7.640;2024-02-23T15:47:15;145.53;;;48.23;;
11835;SDS011;5977;51.972;7.640;2024-02-23T15:49:43;145.43;;;48.23;;
11835;SDS011;5977;51.972;7.640;2024-02-23T15:52:31;145.73;;;48.37;;
11835;SDS011;5977;51.972;7.640;2024-02-23T15:54:59;145.47;;;48.17;;
11835;SDS011;5977;51.972;7.640;2024-02-23T15:57:28;144.70;;;47.90;;
11835;SDS011;5977;51.972;7.640;2024-02-23T15:59:56;145.30;;;48.23;;
11835;SDS011;5977;51.972;7.640;2024-02-23T16:02:30;144.97;;;47.80;;
11835;SDS011;5977;51.972;7.640;2024-02-23T16:04:58;145.37;;;48.07;;
11835;SDS011;5977;51.972;7.640;2024-02-23T16:07:26;144.90;;;47.93;;
11835;SDS011;5977;51.972;7.640;2024-02-23T16:09:54;145.47;;;48.27;;
11835;SDS011;5977;51.972;7.640;2024-02-23T16:12:22;144.87;;;47.93;;
11835;SDS011;5977;51.972;7.640;2024-02-23T16:14:51;145.23;;;48.13;;
11835;SDS011;5977;51.972;7.640;2024-02-23T16:17:19;145.30;;;48.13;;
11835;SDS011;5977;51.972;7.640;2024-02-23T16:19:47;145.23;;;48.00;;
11835;SDS011;5977;51.972;7.640;2024-02-23T16:22:16;144.93;;;47.87;;
11835;SDS011;5977;51.972;7.640;2024-02-23T16:24:44;145.37;;;48.03;;
11835;SDS011;5977;51.972;7.640;2024-02-23T16:27:13;144.90;;;47.90;;
11835;SDS011;5977;51.972;7.640;2024-02-23T16:29:42;145.07;;;48.00;;
11835;SDS011;5977;51.972;7.640;2024-02-23T16:32:11;145.27;;;47.97;;
11835;SDS011;5977;51.972;7.640;2024-02-23T16:34:40;144.10;;;47.67;;
11835;SDS011;5977;51.972;7.640;2024-02-23T16:37:08;142.63;;;47.10;;
11835;SDS011;5977;51.972;7.640;2024-02-23T16:39:35;141.83;;;46.77;;
11835;SDS011;5977;51.972;7.640;2024-02-23T16:42:04;141.53;;;46.67;;
11835;SDS011;5977;51.972;7.640;2024-02-23T16:44:32;140.77;;;46.30;;
11835;SDS011;5977;51.972;7.640;2024-02-23T16:47:02;141.07;;;46.47;;
11835;SDS011;5977;51.972;7.640;2024-02-23T16:49:31;140.67;;;46.23;;
11835;SDS011;5977;51.972;7.640;2024-02-23T16:51:59;140.57;;;46.17;;
11835;SDS011;5977;51.972;7.640;2024-02-23T16:54:27;139.67;;;45.80;;
11835;SDS011;5977;51.972;7.640;2024-02-23T16:56:55;140.67;;;46.20;;
11835;SDS011;5977;51.972;7.640;2024-02-23T16:59:24;139.87;;;45.90;;
11835;SDS011;5977;51.972;7.640;2024-02-23T17:01:52;139.80;;;46.00;;
11835;SDS011;5977;51.972;7.640;2024-02-23T17:04:23;139.63;;;45.90;;
11835;SDS011;5977;51.972;7.640;2024-02-23T17:06:52;139.27;;;45.70;;
11835;SDS011;5977;51.972;7.640;2024-02-23T17:09:22;139.53;;;45.77;;
11835;SDS011;5977;51.972;7.640;2024-02-23T17:11:50;139.10;;;45.70;;
11835;SDS011;5977;51.972;7.640;2024-02-23T17:14:18;139.77;;;45.87;;
11835;SDS011;5977;51.972;7.640;2024-02-23T17:16:46;139.57;;;45.90;;
11835;SDS011;5977;51.972;7.640;2024-02-23T17:19:14;139.40;;;45.80;;
11835;SDS011;5977;51.972;7.640;2024-02-23T17:21:42;138.73;;;45.47;;
11835;SDS011;5977;51.972;7.640;2024-02-23T17:24:11;139.20;;;45.70;;
11835;SDS011;5977;51.972;7.640;2024-02-23T17:26:40;139.10;;;45.63;;
11835;SDS011;5977;51.972;7.640;2024-02-23T17:29:08;139.37;;;45.70;;
11835;SDS011;5977;51.972;7.640;2024-02-23T17:31:38;138.57;;;45.37;;
11835;SDS011;5977;51.972;7.640;2024-02-23T17:34:06;139.60;;;45.73;;
11835;SDS011;5977;51.972;7.640;2024-02-23T17:36:34;138.60;;;45.40;;
11835;SDS011;5977;51.972;7.640;2024-02-23T17:39:08;138.87;;;45.50;;
11835;SDS011;5977;51.972;7.640;2024-02-23T17:41:39;138.77;;;45.57;;
11835;SDS011;5977;51.972;7.640;2024-02-23T17:44:07;138.90;;;45.50;;
11835;SDS011;5977;51.972;7.640;2024-02-23T17:46:35;138.50;;;45.50;;
11835;SDS011;5977;51.972;7.640;2024-02-23T17:49:03;138.83;;;45.50;;
11835;SDS011;5977;51.972;7.640;2024-02-23T17:51:32;138.93;;;45.57;;
11835;SDS011;5977;51.972;7.640;2024-02-23T17:54:00;138.73;;;45.57;;
11835;SDS011;5977;51.972;7.640;2024-02-23T17:56:28;138.63;;;45.57;;
11835;SDS011;5977;51.972;7.640;2024-02-23T17:58:57;139.03;;;45.70;;
11835;SDS011;5977;51.972;7.640;2024-02-23T18:01:25;138.73;;;45.60;;
11835;SDS011;5977;51.972;7.640;2024-02-23T18:03:53;138.97;;;45.80;;
11835;SDS011;5977;51.972;7.640;2024-02-23T18:06:21;139.27;;;45.83;;
11835;SDS011;5977;51.972;7.640;2024-02-23T18:08:50;138.77;;;45.60;;
11835;SDS011;5977;51.972;7.640;2024-02-23T18:11:18;139.07;;;45.77;;
11835;SDS011;5977;51.972;7.640;2024-02-23T18:13:47;139.50;;;45.90;;
11835;SDS011;5977;51.972;7.640;2024-02-23T18:16:17;139.13;;;45.90;;
11835;SDS011;5977;51.972;7.640;2024-02-23T18:18:45;139.60;;;46.00;;
11835;SDS011;5977;51.972;7.640;2024-02-23T18:21:14;139.17;;;45.77;;
11835;SDS011;5977;51.972;7.640;2024-02-23T18:23:43;139.50;;;46.03;;
11835;SDS011;5977;51.972;7.640;2024-02-23T18:26:11;139.03;;;45.87;;
11835;SDS011;5977;51.972;7.640;2024-02-23T18:28:40;140.00;;;46.13;;
11835;SDS011;5977;51.972;7.640;2024-02-23T18:31:08;139.57;;;46.10;;
11835;SDS011;5977;51.972;7.640;2024-02-23T18:33:38;140.00;;;46.27;;
11835;SDS011;5977;51.972;7.640;2024-02-23T18:36:06;139.70;;;46.03;;
11835;SDS011;5977;51.972;7.640;2024-02-23T18:38:39;139.77;;;46.00;;
11835;SDS011;5977;51.972;7.640;2024-02-23T18:41:07;139.53;;;45.90;;
11835;SDS011;5977;51.972;7.640;2024-02-23T18:43:36;139.60;;;46.03;;
11835;SDS011;5977;51.972;7.640;2024-02-23T18:46:05;139.47;;;45.93;;
11835;SDS011;5977;51.972;7.640;2024-02-23T18:48:34;139.20;;;45.80;;
11835;SDS011;5977;51.972;7.640;2024-02-23T18:51:04;139.60;;;46.03;;
11835;SDS011;5977;51.972;7.640;2024-02-23T18:53:32;139.00;;;45.73;;
11835;SDS011;5977;51.972;7.640;2024-02-23T18:56:00;139.10;;;45.80;;
11835;SDS011;5977;51.972;7.640;2024-02-23T18:58:31;139.53;;;45.90;;
11835;SDS011;5977;51.972;7.640;2024-02-23T19:01:00;139.17;;;45.90;;
11835;SDS011;5977;51.972;7.640;2024-02-23T19:03:28;139.47;;;45.97;;
11835;SDS011;5977;51.972;7.640;2024-02-23T19:05:55;139.80;;;46.10;;
11835;SDS011;5977;51.972;7.640;2024-02-23T19:08:25;139.23;;;45.90;;
11835;SDS011;5977;51.972;7.640;2024-02-23T19:10:53;140.20;;;46.23;;
11835;SDS011;5977;51.972;7.640;2024-02-23T19:13:21;139.57;;;46.00;;
11835;SDS011;5977;51.972;7.640;2024-02-23T19:15:49;139.13;;;45.80;;
11835;SDS011;5977;51.972;7.640;2024-02-23T19:18:17;139.23;;;45.90;;
11835;SDS011;5977;51.972;7.640;2024-02-23T19:20:46;139.90;;;46.10;;
11835;SDS011;5977;51.972;7.640;2024-02-23T19:23:14;139.60;;;46.07;;
11835;SDS011;5977;51.972;7.640;2024-02-23T19:25:44;139.07;;;45.80;;
11835;SDS011;5977;51.972;7.640;2024-02-23T19:28:12;139.33;;;45.93;;
11835;SDS011;5977;51.972;7.640;2024-02-23T19:30:39;139.00;;;45.77;;
11835;SDS011;5977;51.972;7.640;2024-02-23T19:33:09;139.80;;;46.20;;
11835;SDS011;5977;51.972;7.640;2024-02-23T19:35:37;139.40;;;46.03;;
11835;SDS011;5977;51.972;7.640;2024-02-23T19:38:06;139.80;;;46.17;;
11835;SDS011;5977;51.972;7.640;2024-02-23T19:40:34;138.60;;;45.70;;
11835;SDS011;5977;51.972;7.640;2024-02-23T19:43:03;139.83;;;46.17;;
11835;SDS011;5977;51.972;7.640;2024-02-23T19:45:31;139.20;;;46.00;;
11835;SDS011;5977;51.972;7.640;2024-02-23T19:47:59;139.47;;;45.97;;
11835;SDS011;5977;51.972;7.640;2024-02-23T19:50:27;139.43;;;46.07;;
11835;SDS011;5977;51.972;7.640;2024-02-23T19:52:55;139.43;;;46.07;;
11835;SDS011;5977;51.972;7.640;2024-02-23T19:55:23;139.40;;;46.10;;
11835;SDS011;5977;51.972;7.640;2024-02-23T19:57:51;138.53;;;45.57;;
11835;SDS011;5977;51.972;7.640;2024-02-23T20:00:22;139.40;;;45.97;;
11835;SDS011;5977;51.972;7.640;2024-02-23T20:02:50;138.53;;;45.73;;
11835;SDS011;5977;51.972;7.640;2024-02-23T20:05:21;138.97;;;45.80;;
11835;SDS011;5977;51.972;7.640;2024-02-23T20:07:52;139.40;;;45.87;;
11835;SDS011;5977;51.972;7.640;2024-02-23T20:10:20;139.07;;;45.77;;
11835;SDS011;5977;51.972;7.640;2024-02-23T20:12:49;139.53;;;46.00;;
11835;SDS011;5977;51.972;7.640;2024-02-23T20:15:17;139.50;;;46.00;;
11835;SDS011;5977;51.972;7.640;2024-02-23T20:17:46;139.53;;;46.20;;
11835;SDS011;5977;51.972;7.640;2024-02-23T20:20:15;138.83;;;45.70;;
11835;SDS011;5977;51.972;7.640;2024-02-23T20:22:43;139.50;;;45.97;;
11835;SDS011;5977;51.972;7.640;2024-02-23T20:25:11;138.70;;;45.70;;
11835;SDS011;5977;51.972;7.640;2024-02-23T20:27:39;139.13;;;45.90;;
11835;SDS011;5977;51.972;7.640;2024-02-23T20:30:08;139.33;;;45.97;;
11835;SDS011;5977;51.972;7.640;2024-02-23T20:32:36;139.40;;;46.03;;
11835;SDS011;5977;51.972;7.640;2024-02-23T20:35:06;139.23;;;45.83;;
11835;SDS011;5977;51.972;7.640;2024-02-23T20:37:35;139.13;;;46.00;;
11835;SDS011;5977;51.972;7.640;2024-02-23T20:40:04;138.80;;;45.83;;
11835;SDS011;5977;51.972;7.640;2024-02-23T20:42:34;139.37;;;46.03;;
11835;SDS011;5977;51.972;7.640;2024-02-23T20:45:02;138.70;;;45.70;;
11835;SDS011;5977;51.972;7.640;2024-02-23T20:47:31;139.27;;;46.00;;
11835;SDS011;5977;51.972;7.640;2024-02-23T20:49:59;139.13;;;45.90;;
11835;SDS011;5977;51.972;7.640;2024-02-23T20:52:29;139.20;;;46.00;;
11835;SDS011;5977;51.972;7.640;2024-02-23T20:54:56;139.23;;;45.97;;
11835;SDS011;5977;51.972;7.640;2024-02-23T20:57:26;139.00;;;45.90;;
11835;SDS011;5977;51.972;7.640;2024-02-23T20:59:53;138.47;;;45.70;;
11835;SDS011;5977;51.972;7.640;2024-02-23T21:02:21;139.07;;;45.93;;
11835;SDS011;5977;51.972;7.640;2024-02-23T21:04:50;138.83;;;45.90;;
11835;SDS011;5977;51.972;7.640;2024-02-23T21:07:20;139.53;;;46.10;;